sensor_id;sensor_type;location;lat;lon;timestamp;P1;durP1;ratioP1;P2;durP2;ratioP2
11125;SDS011;5617;54.046;10.676;2023-09-18T00:00:16;7.33;;;6.73;;
11125;SDS011;5617;54.046;10.676;2023-09-18T00:02:25;7.27;;;6.47;;
11125;SDS011;5617;54.046;10.676;2023-09-18T00:04:34;7.70;;;6.87;;
11125;SDS011;5617;54.046;10.676;2023-09-18T00:06:42;7.87;;;7.17;;
11125;SDS011;5617;54.046;10.676;2023-09-18T00:08:50;7.07;;;6.47;;
11125;SDS011;5617;54.046;10.676;2023-09-18T00:11:01;7.20;;;6.50;;
11125;SDS011;5617;54.046;10.676;2023-09-18T00:13:09;7.23;;;6.53;;
11125;SDS011;5617;54.046;10.676;2023-09-18T00:15:17;7.63;;;7.03;;
11125;SDS011;5617;54.046;10.676;2023-09-18T00:17:25;7.73;;;6.93;;
11125;SDS011;5617;54.046;10.676;2023-09-18T00:19:33;6.93;;;6.30;;
11125;SDS011;5617;54.046;10.676;2023-09-18T00:21:40;7.00;;;6.40;;
11125;SDS011;5617;54.046;10.676;2023-09-18T00:23:48;7.63;;;7.03;;
11125;SDS011;5617;54.046;10.676;2023-09-18T00:25:56;7.93;;;7.10;;
11125;SDS011;5617;54.046;10.676;2023-09-18T00:28:06;7.23;;;6.57;;
11125;SDS011;5617;54.046;10.676;2023-09-18T00:30:13;7.73;;;6.87;;
11125;SDS011;5617;54.046;10.676;2023-09-18T00:32:21;7.20;;;6.60;;
11125;SDS011;5617;54.046;10.676;2023-09-18T00:34:29;8.27;;;6.63;;
11125;SDS011;5617;54.046;10.676;2023-09-18T00:36:38;9.33;;;6.63;;
11125;SDS011;5617;54.046;10.676;2023-09-18T00:38:46;7.93;;;7.23;;
11125;SDS011;5617;54.046;10.676;2023-09-18T00:40:54;6.97;;;6.47;;
11125;SDS011;5617;54.046;10.676;2023-09-18T00:43:06;6.77;;;6.17;;
11125;SDS011;5617;54.046;10.676;2023-09-18T00:45:15;7.57;;;6.97;;
11125;SDS011;5617;54.046;10.676;2023-09-18T00:47:23;7.63;;;6.93;;
11125;SDS011;5617;54.046;10.676;2023-09-18T00:49:32;7.17;;;6.47;;
11125;SDS011;5617;54.046;10.676;2023-09-18T00:51:40;7.53;;;6.83;;
11125;SDS011;5617;54.046;10.676;2023-09-18T00:53:48;7.60;;;6.90;;
11125;SDS011;5617;54.046;10.676;2023-09-18T00:56:00;6.80;;;6.20;;
11125;SDS011;5617;54.046;10.676;2023-09-18T00:58:09;7.53;;;6.93;;
11125;SDS011;5617;54.046;10.676;2023-09-18T01:00:20;7.77;;;7.17;;
11125;SDS011;5617;54.046;10.676;2023-09-18T01:02:28;7.73;;;6.93;;
11125;SDS011;5617;54.046;10.676;2023-09-18T01:04:39;7.77;;;7.03;;
11125;SDS011;5617;54.046;10.676;2023-09-18T01:06:50;7.73;;;7.13;;
11125;SDS011;5617;54.046;10.676;2023-09-18T01:09:00;7.20;;;6.60;;
11125;SDS011;5617;54.046;10.676;2023-09-18T01:11:14;7.63;;;6.90;;
11125;SDS011;5617;54.046;10.676;2023-09-18T01:13:35;8.50;;;7.80;;
11125;SDS011;5617;54.046;10.676;2023-09-18T01:15:50;7.50;;;6.90;;
11125;SDS011;5617;54.046;10.676;2023-09-18T01:18:01;8.37;;;7.57;;
11125;SDS011;5617;54.046;10.676;2023-09-18T01:20:10;8.43;;;7.73;;
11125;SDS011;5617;54.046;10.676;2023-09-18T01:22:19;7.60;;;7.00;;
11125;SDS011;5617;54.046;10.676;2023-09-18T01:24:32;8.03;;;7.33;;
11125;SDS011;5617;54.046;10.676;2023-09-18T01:26:40;8.10;;;7.40;;
11125;SDS011;5617;54.046;10.676;2023-09-18T01:28:48;7.63;;;6.83;;
11125;SDS011;5617;54.046;10.676;2023-09-18T01:30:56;8.37;;;7.60;;
11125;SDS011;5617;54.046;10.676;2023-09-18T01:33:04;8.57;;;7.83;;
11125;SDS011;5617;54.046;10.676;2023-09-18T01:35:12;7.77;;;7.17;;
11125;SDS011;5617;54.046;10.676;2023-09-18T01:37:22;7.80;;;7.10;;
11125;SDS011;5617;54.046;10.676;2023-09-18T01:39:34;8.00;;;7.30;;
11125;SDS011;5617;54.046;10.676;2023-09-18T01:41:42;7.77;;;7.17;;
11125;SDS011;5617;54.046;10.676;2023-09-18T01:43:50;7.93;;;7.23;;
11125;SDS011;5617;54.046;10.676;2023-09-18T01:45:58;7.60;;;7.00;;
11125;SDS011;5617;54.046;10.676;2023-09-18T01:48:05;8.00;;;7.33;;
11125;SDS011;5617;54.046;10.676;2023-09-18T01:50:16;7.60;;;7.00;;
11125;SDS011;5617;54.046;10.676;2023-09-18T01:52:24;7.90;;;7.30;;
11125;SDS011;5617;54.046;10.676;2023-09-18T01:54:33;7.80;;;7.10;;
11125;SDS011;5617;54.046;10.676;2023-09-18T01:56:42;7.77;;;7.17;;
11125;SDS011;5617;54.046;10.676;2023-09-18T01:58:49;7.83;;;7.13;;
11125;SDS011;5617;54.046;10.676;2023-09-18T02:01:00;8.07;;;7.30;;
11125;SDS011;5617;54.046;10.676;2023-09-18T02:03:08;7.70;;;7.10;;
11125;SDS011;5617;54.046;10.676;2023-09-18T02:05:34;7.77;;;7.17;;
11125;SDS011;5617;54.046;10.676;2023-09-18T02:07:43;7.77;;;7.10;;
11125;SDS011;5617;54.046;10.676;2023-09-18T02:09:55;7.90;;;7.30;;
11125;SDS011;5617;54.046;10.676;2023-09-18T02:12:03;7.73;;;7.13;;
11125;SDS011;5617;54.046;10.676;2023-09-18T02:14:12;7.57;;;6.93;;
11125;SDS011;5617;54.046;10.676;2023-09-18T02:16:20;8.07;;;7.27;;
11125;SDS011;5617;54.046;10.676;2023-09-18T02:18:30;7.57;;;6.87;;
11125;SDS011;5617;54.046;10.676;2023-09-18T02:20:40;7.30;;;6.70;;
11125;SDS011;5617;54.046;10.676;2023-09-18T02:22:48;7.90;;;7.30;;
11125;SDS011;5617;54.046;10.676;2023-09-18T02:25:00;7.53;;;6.90;;
11125;SDS011;5617;54.046;10.676;2023-09-18T02:27:09;7.20;;;6.60;;
11125;SDS011;5617;54.046;10.676;2023-09-18T02:29:17;7.60;;;7.00;;
11125;SDS011;5617;54.046;10.676;2023-09-18T02:31:26;7.17;;;6.57;;
11125;SDS011;5617;54.046;10.676;2023-09-18T02:33:34;8.00;;;7.30;;
11125;SDS011;5617;54.046;10.676;2023-09-18T02:35:42;7.97;;;6.83;;
11125;SDS011;5617;54.046;10.676;2023-09-18T02:37:50;7.60;;;6.90;;
11125;SDS011;5617;54.046;10.676;2023-09-18T02:40:00;8.10;;;7.40;;
11125;SDS011;5617;54.046;10.676;2023-09-18T02:42:08;7.30;;;6.70;;
11125;SDS011;5617;54.046;10.676;2023-09-18T02:44:19;8.10;;;7.40;;
11125;SDS011;5617;54.046;10.676;2023-09-18T02:46:30;7.40;;;6.80;;
11125;SDS011;5617;54.046;10.676;2023-09-18T02:48:38;8.67;;;7.80;;
11125;SDS011;5617;54.046;10.676;2023-09-18T02:50:46;7.90;;;7.20;;
11125;SDS011;5617;54.046;10.676;2023-09-18T02:52:54;7.63;;;7.03;;
11125;SDS011;5617;54.046;10.676;2023-09-18T02:55:03;7.60;;;7.00;;
11125;SDS011;5617;54.046;10.676;2023-09-18T02:57:11;7.97;;;7.27;;
11125;SDS011;5617;54.046;10.676;2023-09-18T02:59:22;7.87;;;7.17;;
11125;SDS011;5617;54.046;10.676;2023-09-18T03:01:30;7.83;;;7.03;;
11125;SDS011;5617;54.046;10.676;2023-09-18T03:03:38;7.83;;;7.20;;
11125;SDS011;5617;54.046;10.676;2023-09-18T03:05:48;7.87;;;7.07;;
11125;SDS011;5617;54.046;10.676;2023-09-18T03:07:55;8.27;;;7.57;;
11125;SDS011;5617;54.046;10.676;2023-09-18T03:10:04;8.23;;;7.53;;
11125;SDS011;5617;54.046;10.676;2023-09-18T03:12:13;7.60;;;7.00;;
11125;SDS011;5617;54.046;10.676;2023-09-18T03:14:23;7.67;;;7.07;;
11125;SDS011;5617;54.046;10.676;2023-09-18T03:16:31;7.93;;;7.30;;
11125;SDS011;5617;54.046;10.676;2023-09-18T03:18:39;7.50;;;6.80;;
11125;SDS011;5617;54.046;10.676;2023-09-18T03:20:47;8.00;;;7.20;;
11125;SDS011;5617;54.046;10.676;2023-09-18T03:22:56;7.57;;;6.90;;
11125;SDS011;5617;54.046;10.676;2023-09-18T03:25:06;7.40;;;6.80;;
11125;SDS011;5617;54.046;10.676;2023-09-18T03:27:14;8.20;;;7.50;;
11125;SDS011;5617;54.046;10.676;2023-09-18T03:29:22;7.83;;;7.10;;
11125;SDS011;5617;54.046;10.676;2023-09-18T03:31:30;8.00;;;7.33;;
11125;SDS011;5617;54.046;10.676;2023-09-18T03:33:37;8.07;;;7.37;;
11125;SDS011;5617;54.046;10.676;2023-09-18T03:35:45;8.10;;;7.40;;
11125;SDS011;5617;54.046;10.676;2023-09-18T03:37:54;7.47;;;6.87;;
11125;SDS011;5617;54.046;10.676;2023-09-18T03:40:02;7.47;;;6.87;;
11125;SDS011;5617;54.046;10.676;2023-09-18T03:42:12;7.93;;;7.27;;
11125;SDS011;5617;54.046;10.676;2023-09-18T03:44:20;7.63;;;6.93;;
11125;SDS011;5617;54.046;10.676;2023-09-18T03:46:28;7.93;;;7.30;;
11125;SDS011;5617;54.046;10.676;2023-09-18T03:48:36;7.73;;;7.13;;
11125;SDS011;5617;54.046;10.676;2023-09-18T03:50:44;8.07;;;7.37;;
11125;SDS011;5617;54.046;10.676;2023-09-18T03:52:51;7.37;;;6.67;;
11125;SDS011;5617;54.046;10.676;2023-09-18T03:54:59;7.73;;;7.13;;
11125;SDS011;5617;54.046;10.676;2023-09-18T03:57:05;7.53;;;6.90;;
11125;SDS011;5617;54.046;10.676;2023-09-18T03:59:14;7.67;;;6.97;;
11125;SDS011;5617;54.046;10.676;2023-09-18T04:01:22;6.90;;;6.40;;
11125;SDS011;5617;54.046;10.676;2023-09-18T04:03:30;7.23;;;6.17;;
11125;SDS011;5617;54.046;10.676;2023-09-18T04:05:37;7.17;;;6.57;;
11125;SDS011;5617;54.046;10.676;2023-09-18T04:07:45;7.27;;;6.67;;
11125;SDS011;5617;54.046;10.676;2023-09-18T04:09:53;7.37;;;6.77;;
11125;SDS011;5617;54.046;10.676;2023-09-18T04:12:01;7.23;;;6.63;;
11125;SDS011;5617;54.046;10.676;2023-09-18T04:14:07;7.67;;;6.97;;
11125;SDS011;5617;54.046;10.676;2023-09-18T04:16:16;7.20;;;6.60;;
11125;SDS011;5617;54.046;10.676;2023-09-18T04:18:24;7.37;;;6.67;;
11125;SDS011;5617;54.046;10.676;2023-09-18T04:20:32;7.33;;;6.73;;
11125;SDS011;5617;54.046;10.676;2023-09-18T04:22:42;7.00;;;6.50;;
11125;SDS011;5617;54.046;10.676;2023-09-18T04:24:50;6.73;;;6.17;;
11125;SDS011;5617;54.046;10.676;2023-09-18T04:26:58;7.00;;;6.40;;
11125;SDS011;5617;54.046;10.676;2023-09-18T04:29:05;7.33;;;6.73;;
11125;SDS011;5617;54.046;10.676;2023-09-18T04:31:13;7.37;;;6.77;;
11125;SDS011;5617;54.046;10.676;2023-09-18T04:33:23;6.90;;;6.30;;
11125;SDS011;5617;54.046;10.676;2023-09-18T04:35:31;7.60;;;7.00;;
11125;SDS011;5617;54.046;10.676;2023-09-18T04:37:39;7.73;;;7.13;;
11125;SDS011;5617;54.046;10.676;2023-09-18T04:39:47;7.03;;;6.50;;
11125;SDS011;5617;54.046;10.676;2023-09-18T04:41:54;7.03;;;6.43;;
11125;SDS011;5617;54.046;10.676;2023-09-18T04:44:02;7.40;;;6.73;;
11125;SDS011;5617;54.046;10.676;2023-09-18T04:46:11;7.30;;;6.70;;
11125;SDS011;5617;54.046;10.676;2023-09-18T04:48:19;7.23;;;6.63;;
11125;SDS011;5617;54.046;10.676;2023-09-18T04:50:27;7.40;;;6.80;;
11125;SDS011;5617;54.046;10.676;2023-09-18T04:52:35;7.37;;;6.67;;
11125;SDS011;5617;54.046;10.676;2023-09-18T04:54:43;7.27;;;6.77;;
11125;SDS011;5617;54.046;10.676;2023-09-18T04:56:50;7.37;;;6.77;;
11125;SDS011;5617;54.046;10.676;2023-09-18T04:58:57;7.27;;;6.67;;
11125;SDS011;5617;54.046;10.676;2023-09-18T05:01:05;6.97;;;6.37;;
11125;SDS011;5617;54.046;10.676;2023-09-18T05:03:12;6.80;;;6.30;;
11125;SDS011;5617;54.046;10.676;2023-09-18T05:05:24;7.63;;;6.87;;
11125;SDS011;5617;54.046;10.676;2023-09-18T05:07:35;7.37;;;6.67;;
11125;SDS011;5617;54.046;10.676;2023-09-18T05:09:43;7.57;;;6.90;;
11125;SDS011;5617;54.046;10.676;2023-09-18T05:11:56;7.23;;;6.67;;
11125;SDS011;5617;54.046;10.676;2023-09-18T05:14:04;7.13;;;6.53;;
11125;SDS011;5617;54.046;10.676;2023-09-18T05:16:17;6.93;;;6.33;;
11125;SDS011;5617;54.046;10.676;2023-09-18T05:18:28;7.00;;;6.40;;
11125;SDS011;5617;54.046;10.676;2023-09-18T05:20:36;7.20;;;6.60;;
11125;SDS011;5617;54.046;10.676;2023-09-18T05:22:46;7.43;;;6.63;;
11125;SDS011;5617;54.046;10.676;2023-09-18T05:24:53;6.70;;;6.10;;
11125;SDS011;5617;54.046;10.676;2023-09-18T05:27:00;6.97;;;6.33;;
11125;SDS011;5617;54.046;10.676;2023-09-18T05:29:07;7.20;;;6.60;;
11125;SDS011;5617;54.046;10.676;2023-09-18T05:31:17;6.77;;;5.93;;
11125;SDS011;5617;54.046;10.676;2023-09-18T05:33:28;7.23;;;6.63;;
11125;SDS011;5617;54.046;10.676;2023-09-18T05:35:36;6.87;;;6.27;;
11125;SDS011;5617;54.046;10.676;2023-09-18T05:37:48;7.90;;;6.67;;
11125;SDS011;5617;54.046;10.676;2023-09-18T05:39:56;7.70;;;7.07;;
11125;SDS011;5617;54.046;10.676;2023-09-18T05:42:04;7.07;;;6.47;;
11125;SDS011;5617;54.046;10.676;2023-09-18T05:44:12;7.10;;;6.40;;
11125;SDS011;5617;54.046;10.676;2023-09-18T05:46:22;7.50;;;6.90;;
11125;SDS011;5617;54.046;10.676;2023-09-18T05:48:30;7.20;;;6.60;;
11125;SDS011;5617;54.046;10.676;2023-09-18T05:50:46;6.83;;;6.13;;
11125;SDS011;5617;54.046;10.676;2023-09-18T05:52:59;6.80;;;6.20;;
11125;SDS011;5617;54.046;10.676;2023-09-18T05:55:10;7.00;;;6.20;;
11125;SDS011;5617;54.046;10.676;2023-09-18T05:57:18;6.63;;;6.13;;
11125;SDS011;5617;54.046;10.676;2023-09-18T05:59:33;6.63;;;6.13;;
11125;SDS011;5617;54.046;10.676;2023-09-18T06:01:41;6.50;;;6.00;;
11125;SDS011;5617;54.046;10.676;2023-09-18T06:03:49;6.63;;;6.03;;
11125;SDS011;5617;54.046;10.676;2023-09-18T06:05:56;6.30;;;5.70;;
11125;SDS011;5617;54.046;10.676;2023-09-18T06:08:05;6.53;;;6.03;;
11125;SDS011;5617;54.046;10.676;2023-09-18T06:10:12;6.27;;;5.63;;
11125;SDS011;5617;54.046;10.676;2023-09-18T06:12:22;6.60;;;6.00;;
11125;SDS011;5617;54.046;10.676;2023-09-18T06:14:33;6.60;;;6.00;;
11125;SDS011;5617;54.046;10.676;2023-09-18T06:16:41;6.40;;;5.90;;
11125;SDS011;5617;54.046;10.676;2023-09-18T06:18:49;6.17;;;5.77;;
11125;SDS011;5617;54.046;10.676;2023-09-18T06:20:57;5.97;;;5.57;;
11125;SDS011;5617;54.046;10.676;2023-09-18T06:23:06;6.80;;;6.20;;
11125;SDS011;5617;54.046;10.676;2023-09-18T06:25:14;6.17;;;5.63;;
11125;SDS011;5617;54.046;10.676;2023-09-18T06:27:24;6.37;;;5.87;;
11125;SDS011;5617;54.046;10.676;2023-09-18T06:29:32;5.70;;;5.30;;
11125;SDS011;5617;54.046;10.676;2023-09-18T06:31:43;6.10;;;5.60;;
11125;SDS011;5617;54.046;10.676;2023-09-18T06:33:51;6.40;;;5.80;;
11125;SDS011;5617;54.046;10.676;2023-09-18T06:35:59;5.83;;;5.43;;
11125;SDS011;5617;54.046;10.676;2023-09-18T06:38:08;5.90;;;5.37;;
11125;SDS011;5617;54.046;10.676;2023-09-18T06:40:18;5.50;;;5.13;;
11125;SDS011;5617;54.046;10.676;2023-09-18T06:42:28;5.80;;;5.30;;
11125;SDS011;5617;54.046;10.676;2023-09-18T06:44:34;5.70;;;5.20;;
11125;SDS011;5617;54.046;10.676;2023-09-18T06:46:45;5.60;;;5.20;;
11125;SDS011;5617;54.046;10.676;2023-09-18T06:48:55;5.80;;;5.40;;
11125;SDS011;5617;54.046;10.676;2023-09-18T06:51:03;5.70;;;5.30;;
11125;SDS011;5617;54.046;10.676;2023-09-18T06:53:15;5.67;;;5.27;;
11125;SDS011;5617;54.046;10.676;2023-09-18T06:55:23;5.43;;;5.00;;
11125;SDS011;5617;54.046;10.676;2023-09-18T06:57:31;5.17;;;4.70;;
11125;SDS011;5617;54.046;10.676;2023-09-18T06:59:44;5.63;;;4.80;;
11125;SDS011;5617;54.046;10.676;2023-09-18T07:01:52;4.83;;;4.33;;
11125;SDS011;5617;54.046;10.676;2023-09-18T07:03:59;4.80;;;4.40;;
11125;SDS011;5617;54.046;10.676;2023-09-18T07:06:14;4.60;;;4.30;;
11125;SDS011;5617;54.046;10.676;2023-09-18T07:08:27;5.40;;;4.43;;
11125;SDS011;5617;54.046;10.676;2023-09-18T07:10:36;4.70;;;4.40;;
11125;SDS011;5617;54.046;10.676;2023-09-18T07:12:51;4.63;;;4.23;;
11125;SDS011;5617;54.046;10.676;2023-09-18T07:15:00;4.53;;;4.23;;
11125;SDS011;5617;54.046;10.676;2023-09-18T07:17:11;4.47;;;4.07;;
11125;SDS011;5617;54.046;10.676;2023-09-18T07:19:19;4.37;;;3.97;;
11125;SDS011;5617;54.046;10.676;2023-09-18T07:21:26;4.30;;;3.90;;
11125;SDS011;5617;54.046;10.676;2023-09-18T07:23:36;4.80;;;4.37;;
11125;SDS011;5617;54.046;10.676;2023-09-18T07:25:44;4.20;;;3.90;;
11125;SDS011;5617;54.046;10.676;2023-09-18T07:27:52;4.07;;;3.77;;
11125;SDS011;5617;54.046;10.676;2023-09-18T07:29:59;4.80;;;3.83;;
11125;SDS011;5617;54.046;10.676;2023-09-18T07:32:10;4.17;;;3.87;;
11125;SDS011;5617;54.046;10.676;2023-09-18T07:34:29;3.83;;;3.53;;
11125;SDS011;5617;54.046;10.676;2023-09-18T07:36:41;4.73;;;4.33;;
11125;SDS011;5617;54.046;10.676;2023-09-18T07:38:52;4.20;;;3.90;;
11125;SDS011;5617;54.046;10.676;2023-09-18T07:41:00;4.00;;;3.70;;
11125;SDS011;5617;54.046;10.676;2023-09-18T07:43:08;4.10;;;3.80;;
11125;SDS011;5617;54.046;10.676;2023-09-18T07:45:17;3.90;;;3.60;;
11125;SDS011;5617;54.046;10.676;2023-09-18T07:47:25;4.10;;;3.70;;
11125;SDS011;5617;54.046;10.676;2023-09-18T07:49:33;4.60;;;3.70;;
11125;SDS011;5617;54.046;10.676;2023-09-18T07:51:41;3.83;;;3.53;;
11125;SDS011;5617;54.046;10.676;2023-09-18T07:53:51;3.87;;;3.50;;
11125;SDS011;5617;54.046;10.676;2023-09-18T07:55:59;3.57;;;3.37;;
11125;SDS011;5617;54.046;10.676;2023-09-18T07:58:16;3.67;;;3.37;;
11125;SDS011;5617;54.046;10.676;2023-09-18T08:00:23;3.77;;;3.47;;
11125;SDS011;5617;54.046;10.676;2023-09-18T08:02:32;3.70;;;3.40;;
11125;SDS011;5617;54.046;10.676;2023-09-18T08:04:52;3.77;;;3.47;;
11125;SDS011;5617;54.046;10.676;2023-09-18T08:07:00;4.03;;;3.80;;
11125;SDS011;5617;54.046;10.676;2023-09-18T08:09:09;3.50;;;3.30;;
11125;SDS011;5617;54.046;10.676;2023-09-18T08:11:19;3.63;;;3.33;;
11125;SDS011;5617;54.046;10.676;2023-09-18T08:13:27;3.27;;;3.07;;
11125;SDS011;5617;54.046;10.676;2023-09-18T08:15:35;3.27;;;3.07;;
11125;SDS011;5617;54.046;10.676;2023-09-18T08:17:44;3.47;;;3.17;;
11125;SDS011;5617;54.046;10.676;2023-09-18T08:19:52;3.00;;;2.80;;
11125;SDS011;5617;54.046;10.676;2023-09-18T08:22:03;3.20;;;3.00;;
11125;SDS011;5617;54.046;10.676;2023-09-18T08:24:12;3.27;;;2.97;;
11125;SDS011;5617;54.046;10.676;2023-09-18T08:26:25;3.27;;;3.07;;
11125;SDS011;5617;54.046;10.676;2023-09-18T08:28:34;3.90;;;2.70;;
11125;SDS011;5617;54.046;10.676;2023-09-18T08:30:49;3.20;;;3.00;;
11125;SDS011;5617;54.046;10.676;2023-09-18T08:32:57;3.70;;;2.70;;
11125;SDS011;5617;54.046;10.676;2023-09-18T08:35:05;3.80;;;3.10;;
11125;SDS011;5617;54.046;10.676;2023-09-18T08:37:13;3.00;;;2.80;;
11125;SDS011;5617;54.046;10.676;2023-09-18T08:39:22;2.93;;;2.73;;
11125;SDS011;5617;54.046;10.676;2023-09-18T08:41:31;3.20;;;3.00;;
11125;SDS011;5617;54.046;10.676;2023-09-18T08:43:40;3.10;;;2.90;;
11125;SDS011;5617;54.046;10.676;2023-09-18T08:45:51;4.43;;;3.10;;
11125;SDS011;5617;54.046;10.676;2023-09-18T08:48:07;3.20;;;3.00;;
11125;SDS011;5617;54.046;10.676;2023-09-18T08:50:15;3.00;;;2.70;;
11125;SDS011;5617;54.046;10.676;2023-09-18T08:52:23;4.40;;;2.83;;
11125;SDS011;5617;54.046;10.676;2023-09-18T08:54:34;3.00;;;2.80;;
11125;SDS011;5617;54.046;10.676;2023-09-18T08:56:42;3.13;;;2.93;;
11125;SDS011;5617;54.046;10.676;2023-09-18T08:58:51;3.33;;;3.00;;
11125;SDS011;5617;54.046;10.676;2023-09-18T09:00:59;2.80;;;2.60;;
11125;SDS011;5617;54.046;10.676;2023-09-18T09:03:09;3.00;;;2.80;;
11125;SDS011;5617;54.046;10.676;2023-09-18T09:05:17;3.17;;;2.83;;
11125;SDS011;5617;54.046;10.676;2023-09-18T09:07:25;4.43;;;3.07;;
11125;SDS011;5617;54.046;10.676;2023-09-18T09:09:32;2.83;;;2.63;;
11125;SDS011;5617;54.046;10.676;2023-09-18T09:11:47;2.97;;;2.77;;
11125;SDS011;5617;54.046;10.676;2023-09-18T09:14:08;2.93;;;2.73;;
11125;SDS011;5617;54.046;10.676;2023-09-18T09:16:23;3.13;;;2.67;;
11125;SDS011;5617;54.046;10.676;2023-09-18T09:18:31;3.00;;;2.70;;
11125;SDS011;5617;54.046;10.676;2023-09-18T09:20:40;3.00;;;2.80;;
11125;SDS011;5617;54.046;10.676;2023-09-18T09:22:48;3.03;;;2.77;;
11125;SDS011;5617;54.046;10.676;2023-09-18T09:24:56;2.93;;;2.67;;
11125;SDS011;5617;54.046;10.676;2023-09-18T09:27:05;3.10;;;2.80;;
11125;SDS011;5617;54.046;10.676;2023-09-18T09:29:14;2.80;;;2.57;;
11125;SDS011;5617;54.046;10.676;2023-09-18T09:31:24;2.87;;;2.67;;
11125;SDS011;5617;54.046;10.676;2023-09-18T09:33:33;3.47;;;2.63;;
11125;SDS011;5617;54.046;10.676;2023-09-18T09:35:41;2.93;;;2.63;;
11125;SDS011;5617;54.046;10.676;2023-09-18T09:37:49;3.27;;;2.97;;
11125;SDS011;5617;54.046;10.676;2023-09-18T09:40:06;2.90;;;2.70;;
11125;SDS011;5617;54.046;10.676;2023-09-18T09:42:21;3.13;;;2.93;;
11125;SDS011;5617;54.046;10.676;2023-09-18T09:44:31;3.27;;;2.70;;
11125;SDS011;5617;54.046;10.676;2023-09-18T09:46:44;3.03;;;2.83;;
11125;SDS011;5617;54.046;10.676;2023-09-18T09:48:59;4.80;;;3.17;;
11125;SDS011;5617;54.046;10.676;2023-09-18T09:51:08;3.50;;;3.07;;
11125;SDS011;5617;54.046;10.676;2023-09-18T09:53:41;3.33;;;3.00;;
11125;SDS011;5617;54.046;10.676;2023-09-18T09:55:53;3.33;;;2.97;;
11125;SDS011;5617;54.046;10.676;2023-09-18T09:58:03;2.90;;;2.70;;
11125;SDS011;5617;54.046;10.676;2023-09-18T10:00:12;2.70;;;2.50;;
11125;SDS011;5617;54.046;10.676;2023-09-18T10:02:32;3.37;;;2.87;;
11125;SDS011;5617;54.046;10.676;2023-09-18T10:04:42;3.37;;;3.13;;
11125;SDS011;5617;54.046;10.676;2023-09-18T10:06:56;3.50;;;2.80;;
11125;SDS011;5617;54.046;10.676;2023-09-18T10:09:06;3.20;;;2.90;;
11125;SDS011;5617;54.046;10.676;2023-09-18T10:11:16;3.07;;;2.87;;
11125;SDS011;5617;54.046;10.676;2023-09-18T10:13:31;3.30;;;3.10;;
11125;SDS011;5617;54.046;10.676;2023-09-18T10:15:43;3.03;;;2.83;;
11125;SDS011;5617;54.046;10.676;2023-09-18T10:17:56;3.40;;;3.03;;
11125;SDS011;5617;54.046;10.676;2023-09-18T10:20:07;4.10;;;3.07;;
11125;SDS011;5617;54.046;10.676;2023-09-18T10:22:24;3.10;;;2.90;;
11125;SDS011;5617;54.046;10.676;2023-09-18T10:24:42;3.30;;;3.00;;
11125;SDS011;5617;54.046;10.676;2023-09-18T10:26:56;4.90;;;3.43;;
11125;SDS011;5617;54.046;10.676;2023-09-18T10:29:06;2.93;;;2.73;;
11125;SDS011;5617;54.046;10.676;2023-09-18T10:31:17;3.70;;;3.13;;
11125;SDS011;5617;54.046;10.676;2023-09-18T10:33:26;3.00;;;2.80;;
11125;SDS011;5617;54.046;10.676;2023-09-18T10:35:34;4.30;;;3.30;;
11125;SDS011;5617;54.046;10.676;2023-09-18T10:37:42;3.57;;;2.90;;
11125;SDS011;5617;54.046;10.676;2023-09-18T10:39:50;2.97;;;2.70;;
11125;SDS011;5617;54.046;10.676;2023-09-18T10:42:01;3.40;;;3.10;;
11125;SDS011;5617;54.046;10.676;2023-09-18T10:44:13;3.37;;;3.13;;
11125;SDS011;5617;54.046;10.676;2023-09-18T10:46:23;4.80;;;3.00;;
11125;SDS011;5617;54.046;10.676;2023-09-18T10:48:32;3.20;;;3.00;;
11125;SDS011;5617;54.046;10.676;2023-09-18T10:50:41;3.40;;;2.87;;
11125;SDS011;5617;54.046;10.676;2023-09-18T10:53:00;3.43;;;3.00;;
11125;SDS011;5617;54.046;10.676;2023-09-18T10:55:10;3.47;;;3.03;;
11125;SDS011;5617;54.046;10.676;2023-09-18T10:57:18;2.90;;;2.70;;
11125;SDS011;5617;54.046;10.676;2023-09-18T10:59:31;4.87;;;3.20;;
11125;SDS011;5617;54.046;10.676;2023-09-18T11:01:39;4.07;;;2.83;;
11125;SDS011;5617;54.046;10.676;2023-09-18T11:03:50;5.37;;;3.17;;
11125;SDS011;5617;54.046;10.676;2023-09-18T11:06:03;3.03;;;2.70;;
11125;SDS011;5617;54.046;10.676;2023-09-18T11:08:25;2.97;;;2.60;;
11125;SDS011;5617;54.046;10.676;2023-09-18T11:10:33;3.53;;;2.87;;
11125;SDS011;5617;54.046;10.676;2023-09-18T11:12:44;3.27;;;2.50;;
11125;SDS011;5617;54.046;10.676;2023-09-18T11:14:57;4.23;;;2.80;;
11125;SDS011;5617;54.046;10.676;2023-09-18T11:17:06;3.90;;;2.93;;
11125;SDS011;5617;54.046;10.676;2023-09-18T11:19:34;2.80;;;2.53;;
11125;SDS011;5617;54.046;10.676;2023-09-18T11:21:48;3.10;;;2.80;;
11125;SDS011;5617;54.046;10.676;2023-09-18T11:24:17;3.50;;;2.90;;
11125;SDS011;5617;54.046;10.676;2023-09-18T11:26:32;4.33;;;2.97;;
11125;SDS011;5617;54.046;10.676;2023-09-18T11:28:40;3.73;;;2.83;;
11125;SDS011;5617;54.046;10.676;2023-09-18T11:30:50;4.37;;;2.90;;
11125;SDS011;5617;54.046;10.676;2023-09-18T11:33:03;5.80;;;2.67;;
11125;SDS011;5617;54.046;10.676;2023-09-18T11:35:12;2.77;;;2.57;;
11125;SDS011;5617;54.046;10.676;2023-09-18T11:37:23;3.67;;;3.23;;
11125;SDS011;5617;54.046;10.676;2023-09-18T11:39:35;2.77;;;2.30;;
11125;SDS011;5617;54.046;10.676;2023-09-18T11:41:44;3.80;;;2.77;;
11125;SDS011;5617;54.046;10.676;2023-09-18T11:46:38;4.67;;;2.73;;
11125;SDS011;5617;54.046;10.676;2023-09-18T11:48:47;3.67;;;3.03;;
11125;SDS011;5617;54.046;10.676;2023-09-18T11:50:57;3.00;;;2.40;;
11125;SDS011;5617;54.046;10.676;2023-09-18T11:53:06;3.87;;;2.87;;
11125;SDS011;5617;54.046;10.676;2023-09-18T11:55:12;4.37;;;2.60;;
11125;SDS011;5617;54.046;10.676;2023-09-18T11:57:20;3.43;;;2.70;;
11125;SDS011;5617;54.046;10.676;2023-09-18T11:59:36;2.90;;;2.63;;
11125;SDS011;5617;54.046;10.676;2023-09-18T12:01:55;2.87;;;2.70;;
11125;SDS011;5617;54.046;10.676;2023-09-18T12:04:13;3.33;;;2.80;;
11125;SDS011;5617;54.046;10.676;2023-09-18T12:06:20;2.80;;;2.53;;
11125;SDS011;5617;54.046;10.676;2023-09-18T12:08:28;3.63;;;3.20;;
11125;SDS011;5617;54.046;10.676;2023-09-18T12:10:40;3.53;;;2.60;;
11125;SDS011;5617;54.046;10.676;2023-09-18T12:12:47;3.87;;;2.63;;
11125;SDS011;5617;54.046;10.676;2023-09-18T12:14:55;4.10;;;2.83;;
11125;SDS011;5617;54.046;10.676;2023-09-18T12:17:05;4.30;;;2.90;;
11125;SDS011;5617;54.046;10.676;2023-09-18T12:19:15;2.73;;;2.37;;
11125;SDS011;5617;54.046;10.676;2023-09-18T12:21:22;3.30;;;2.60;;
11125;SDS011;5617;54.046;10.676;2023-09-18T12:23:36;10.57;;;3.07;;
11125;SDS011;5617;54.046;10.676;2023-09-18T12:25:46;3.60;;;2.50;;
11125;SDS011;5617;54.046;10.676;2023-09-18T12:27:55;5.17;;;2.50;;
11125;SDS011;5617;54.046;10.676;2023-09-18T12:30:05;4.73;;;2.30;;
11125;SDS011;5617;54.046;10.676;2023-09-18T12:32:16;2.60;;;2.40;;
11125;SDS011;5617;54.046;10.676;2023-09-18T12:34:23;3.97;;;2.67;;
11125;SDS011;5617;54.046;10.676;2023-09-18T12:36:32;6.87;;;2.67;;
11125;SDS011;5617;54.046;10.676;2023-09-18T12:38:38;3.50;;;2.60;;
11125;SDS011;5617;54.046;10.676;2023-09-18T12:40:46;4.03;;;2.80;;
11125;SDS011;5617;54.046;10.676;2023-09-18T12:42:57;4.77;;;2.53;;
11125;SDS011;5617;54.046;10.676;2023-09-18T12:45:06;5.07;;;2.90;;
11125;SDS011;5617;54.046;10.676;2023-09-18T12:47:16;3.37;;;3.00;;
11125;SDS011;5617;54.046;10.676;2023-09-18T12:49:24;4.27;;;2.87;;
11125;SDS011;5617;54.046;10.676;2023-09-18T12:51:38;3.30;;;2.50;;
11125;SDS011;5617;54.046;10.676;2023-09-18T12:53:45;3.60;;;2.83;;
11125;SDS011;5617;54.046;10.676;2023-09-18T12:56:06;4.70;;;2.80;;
11125;SDS011;5617;54.046;10.676;2023-09-18T12:58:18;4.13;;;2.80;;
11125;SDS011;5617;54.046;10.676;2023-09-18T13:00:26;3.03;;;2.57;;
11125;SDS011;5617;54.046;10.676;2023-09-18T13:02:35;3.43;;;2.93;;
11125;SDS011;5617;54.046;10.676;2023-09-18T13:04:50;3.07;;;2.67;;